createdAt,value
2022-12-03T00:01:01.299Z,23.23
2022-12-03T00:04:02.974Z,19.20
2022-12-03T00:07:04.533Z,20.85
2022-12-03T00:10:06.943Z,20.92
2022-12-03T00:16:09.803Z,18.98
2022-12-03T00:19:11.409Z,21.05
2022-12-03T00:22:13.000Z,23.20
2022-12-03T00:25:14.631Z,22.70
2022-12-03T00:28:16.051Z,22.20
2022-12-03T00:31:17.618Z,20.17
2022-12-03T00:34:19.139Z,20.37
2022-12-03T00:37:20.619Z,18.20
2022-12-03T00:40:22.027Z,21.08
2022-12-03T00:43:23.464Z,21.42
2022-12-03T00:46:25.554Z,20.08
2022-12-03T00:49:27.209Z,18.75
2022-12-03T00:52:28.607Z,19.60
2022-12-03T00:55:30.026Z,19.55
2022-12-03T00:58:31.552Z,21.93
2022-12-03T01:01:33.018Z,21.40
2022-12-03T01:04:34.817Z,23.27
2022-12-03T01:07:36.426Z,19.23
2022-12-03T01:10:37.902Z,21.33
2022-12-03T01:13:39.345Z,20.73
2022-12-03T01:16:41.364Z,23.25
2022-12-03T01:19:48.029Z,24.30
2022-12-03T01:22:49.947Z,23.70
2022-12-03T01:25:51.389Z,20.80
2022-12-03T01:28:52.836Z,22.53
2022-12-03T01:32:13.393Z,23.83
2022-12-03T01:35:14.864Z,20.42
2022-12-03T01:38:16.289Z,20.90
2022-12-03T01:41:18.870Z,21.33
2022-12-03T01:44:27.187Z,20.42
2022-12-03T01:47:35.338Z,20.30
2022-12-03T01:50:38.423Z,20.98
2022-12-03T01:53:40.143Z,19.53
2022-12-03T01:56:41.604Z,20.48
2022-12-03T01:59:43.047Z,21.08
2022-12-03T02:02:45.301Z,21.13
2022-12-03T02:05:46.795Z,20.15
2022-12-03T02:08:49.031Z,21.80
2022-12-03T02:11:50.770Z,20.20
2022-12-03T02:14:53.665Z,20.67
2022-12-03T02:17:55.807Z,18.23
2022-12-03T02:21:21.493Z,21.85
2022-12-03T02:24:33.084Z,20.48
2022-12-03T02:27:34.637Z,19.55
2022-12-03T02:30:36.937Z,24.50
2022-12-03T02:33:38.406Z,21.15
2022-12-03T02:36:39.976Z,23.37
2022-12-03T02:39:46.866Z,23.40
2022-12-03T02:42:50.948Z,22.92
2022-12-03T02:45:56.386Z,19.42
2022-12-03T02:48:58.834Z,20.17
2022-12-03T02:52:00.265Z,20.20
2022-12-03T02:55:04.374Z,21.92
2022-12-03T02:58:06.615Z,19.40
2022-12-03T03:01:09.206Z,21.95
2022-12-03T03:04:10.857Z,20.30
2022-12-03T03:07:12.726Z,19.27
2022-12-03T03:10:16.344Z,23.70
2022-12-03T03:13:19.075Z,21.83
2022-12-03T03:16:20.826Z,18.25
2022-12-03T03:19:26.095Z,21.08
2022-12-03T03:22:35.415Z,23.05
2022-12-03T03:25:38.288Z,21.95
2022-12-03T03:28:46.610Z,20.95
2022-12-03T03:31:48.423Z,24.90
2022-12-03T03:34:50.190Z,21.88
2022-12-03T03:37:53.635Z,20.02
2022-12-03T03:40:57.257Z,21.90
2022-12-03T03:43:58.941Z,24.65
2022-12-03T03:47:00.597Z,21.10
2022-12-03T03:50:02.755Z,20.98
2022-12-03T03:53:05.035Z,20.15
2022-12-03T03:56:07.471Z,22.50
2022-12-03T03:59:09.020Z,21.05
2022-12-03T04:02:19.583Z,22.00
2022-12-03T04:05:23.177Z,19.60
2022-12-03T04:08:24.723Z,20.40
2022-12-03T04:11:44.902Z,19.77
2022-12-03T04:14:46.411Z,20.52
2022-12-03T04:18:07.829Z,21.50
2022-12-03T04:21:39.674Z,19.33
2022-12-03T04:24:41.111Z,23.48
2022-12-03T04:28:01.605Z,24.35
2022-12-03T04:31:25.657Z,20.90
2022-12-03T04:34:45.801Z,20.35
2022-12-03T04:37:47.259Z,19.45
2022-12-03T04:41:00.766Z,21.00
2022-12-03T04:44:33.174Z,21.23
2022-12-03T04:47:39.782Z,21.33
2022-12-03T04:50:41.616Z,19.80
2022-12-03T04:53:46.182Z,21.37
2022-12-03T04:56:47.907Z,20.67
2022-12-03T04:59:49.377Z,20.27
2022-12-03T05:02:51.013Z,21.27
2022-12-03T05:05:52.509Z,21.75
2022-12-03T05:08:53.986Z,22.13
2022-12-03T05:11:55.440Z,26.02
2022-12-03T05:14:56.993Z,21.40
2022-12-03T05:17:58.467Z,23.67
2022-12-03T05:20:59.882Z,19.85
2022-12-03T05:24:01.692Z,20.30
2022-12-03T05:27:03.279Z,22.50
2022-12-03T05:30:05.369Z,20.30
2022-12-03T05:33:06.792Z,22.63
2022-12-03T05:36:09.053Z,26.95
2022-12-03T05:39:10.516Z,34.45
2022-12-03T05:42:30.565Z,22.88
2022-12-03T05:45:37.637Z,25.52
2022-12-03T05:48:39.053Z,23.30
2022-12-03T05:51:40.491Z,38.25
2022-12-03T05:54:42.070Z,21.03
2022-12-03T05:57:43.743Z,20.50
2022-12-03T06:00:45.193Z,23.70
2022-12-03T06:03:46.734Z,22.77
2022-12-03T06:06:48.269Z,24.47
2022-12-03T06:09:49.695Z,25.67
2022-12-03T06:12:51.521Z,22.40
2022-12-03T06:15:53.012Z,21.08
2022-12-03T06:18:54.498Z,26.97
2022-12-03T06:21:55.959Z,25.67
2022-12-03T06:25:02.055Z,22.15
2022-12-03T06:28:07.359Z,20.85
2022-12-03T06:34:10.318Z,26.65
2022-12-03T06:37:11.731Z,25.47
2022-12-03T06:40:13.586Z,23.92
2022-12-03T06:43:15.303Z,25.83
2022-12-03T06:46:16.761Z,24.13
2022-12-03T06:49:18.262Z,23.03
2022-12-03T06:52:19.794Z,26.80
2022-12-03T06:55:21.205Z,28.77
2022-12-03T06:58:22.639Z,37.53
2022-12-03T07:01:24.635Z,27.67
2022-12-03T07:04:26.120Z,28.35
2022-12-03T07:07:27.626Z,43.95
2022-12-03T07:10:29.215Z,27.07
2022-12-03T07:13:30.886Z,24.30
2022-12-03T07:16:32.559Z,28.63
2022-12-03T07:19:34.056Z,28.83
2022-12-03T07:22:35.586Z,26.05
2022-12-03T07:25:37.375Z,26.50
2022-12-03T07:28:38.786Z,26.02
2022-12-03T07:31:40.296Z,25.65
2022-12-03T07:34:41.846Z,28.30
2022-12-03T07:37:43.267Z,26.90
2022-12-03T07:40:45.171Z,31.83
2022-12-03T07:43:46.656Z,28.20
2022-12-03T07:46:48.229Z,28.77
2022-12-03T07:49:49.717Z,26.60
2022-12-03T07:52:51.143Z,27.85
2022-12-03T07:55:53.008Z,28.58
2022-12-03T07:58:54.547Z,31.95
2022-12-03T08:01:56.120Z,33.40
2022-12-03T08:04:57.641Z,30.43
2022-12-03T08:07:59.151Z,31.83
2022-12-03T08:11:01.937Z,34.90
2022-12-03T08:14:18.605Z,32.42
2022-12-03T08:17:21.613Z,30.77
2022-12-03T08:20:31.522Z,31.40
2022-12-03T08:23:34.521Z,32.08
2022-12-03T08:26:36.074Z,37.53
2022-12-03T08:29:37.490Z,30.43
2022-12-03T08:32:38.892Z,32.92
2022-12-03T08:35:44.253Z,34.05
2022-12-03T08:38:50.917Z,32.33
2022-12-03T08:42:14.977Z,32.35
2022-12-03T08:45:39.819Z,29.95
2022-12-03T08:48:47.081Z,29.55
2022-12-03T08:51:55.979Z,29.88
2022-12-03T08:54:57.658Z,30.25
2022-12-03T08:57:59.533Z,29.52
2022-12-03T09:01:07.106Z,32.53
2022-12-03T09:04:24.070Z,36.42
2022-12-03T09:07:25.610Z,30.50
2022-12-03T09:10:27.109Z,33.17
2022-12-03T09:13:29.056Z,30.43
2022-12-03T09:16:30.677Z,31.42
2022-12-03T09:19:32.435Z,30.88
2022-12-03T09:22:34.067Z,30.67
2022-12-03T09:25:35.524Z,31.27
2022-12-03T09:28:36.950Z,30.27
2022-12-03T09:31:38.456Z,27.95
2022-12-03T09:34:40.003Z,30.73
2022-12-03T09:37:41.419Z,33.70
2022-12-03T09:40:42.975Z,34.70
2022-12-03T09:44:03.500Z,29.97
2022-12-03T09:47:06.428Z,34.78
2022-12-03T09:50:13.646Z,59.60
2022-12-03T09:53:18.454Z,33.22
2022-12-03T09:56:22.724Z,32.15
2022-12-03T09:59:27.374Z,34.15
2022-12-03T10:02:30.554Z,32.60
2022-12-03T10:05:33.216Z,29.30
2022-12-03T10:08:34.681Z,31.15
2022-12-03T10:11:36.211Z,30.67
2022-12-03T10:14:37.643Z,30.20
2022-12-03T10:17:39.229Z,30.67
2022-12-03T10:20:40.650Z,34.87
2022-12-03T10:23:42.090Z,32.88
2022-12-03T10:26:45.729Z,35.90
2022-12-03T10:29:58.341Z,33.30
2022-12-03T10:36:23.420Z,33.88
2022-12-03T10:39:24.880Z,36.05
2022-12-03T10:42:29.295Z,33.00
2022-12-03T10:45:30.756Z,35.28
2022-12-03T10:48:32.241Z,33.83
2022-12-03T10:51:33.919Z,32.97
2022-12-03T10:54:35.702Z,34.10
2022-12-03T10:57:40.002Z,33.60
2022-12-03T11:00:45.256Z,31.90
2022-12-03T11:03:47.765Z,32.97
2022-12-03T11:06:50.726Z,36.72
2022-12-03T11:09:58.821Z,34.83
2022-12-03T11:13:34.052Z,32.03
2022-12-03T11:16:41.646Z,35.05
2022-12-03T11:19:46.520Z,31.40
2022-12-03T11:22:49.692Z,31.05
2022-12-03T11:25:51.116Z,31.50
2022-12-03T11:28:55.178Z,33.33
2022-12-03T11:31:56.590Z,31.50
2022-12-03T11:34:58.189Z,31.83
2022-12-03T11:38:37.993Z,37.55
2022-12-03T11:41:39.470Z,36.30
2022-12-03T11:44:40.930Z,35.57
2022-12-03T11:47:46.914Z,33.65
2022-12-03T11:50:53.015Z,39.22
2022-12-03T11:53:57.652Z,36.65
2022-12-03T11:56:59.109Z,35.28
2022-12-03T12:00:22.259Z,39.43
2022-12-03T12:03:28.640Z,34.00
2022-12-03T12:06:42.496Z,38.95
2022-12-03T12:09:57.253Z,37.33
2022-12-03T12:12:58.930Z,35.53
2022-12-03T12:16:05.325Z,37.90
2022-12-03T12:19:33.036Z,35.47
2022-12-03T12:22:34.558Z,42.30
2022-12-03T12:25:39.082Z,36.50
2022-12-03T12:28:40.594Z,36.83
2022-12-03T12:31:42.158Z,41.47
2022-12-03T12:34:46.389Z,35.08
2022-12-03T12:37:55.009Z,39.58
2022-12-03T12:41:07.457Z,37.20
2022-12-03T12:44:13.977Z,35.10
2022-12-03T12:47:15.409Z,42.10
2022-12-03T12:50:18.388Z,42.10
2022-12-03T12:53:26.183Z,40.45
2022-12-03T12:56:30.887Z,36.38
2022-12-03T12:59:32.577Z,34.25
2022-12-03T13:02:43.129Z,37.92
2022-12-03T13:05:46.861Z,35.67
2022-12-03T13:08:50.256Z,34.90
2022-12-03T13:11:53.697Z,37.28
2022-12-03T13:14:58.285Z,36.03
2022-12-03T13:17:59.705Z,38.47
2022-12-03T13:21:24.546Z,39.30
2022-12-03T13:24:39.662Z,34.47
2022-12-03T13:27:41.058Z,35.85
2022-12-03T13:30:42.594Z,38.67
2022-12-03T13:33:44.030Z,38.80
2022-12-03T13:36:50.709Z,38.42
2022-12-03T13:39:57.803Z,37.42
2022-12-03T13:42:59.408Z,42.78
2022-12-03T13:46:01.255Z,34.75
2022-12-03T13:49:03.184Z,38.70
2022-12-03T13:52:12.738Z,37.90
2022-12-03T13:55:31.481Z,37.03
2022-12-03T13:58:32.879Z,34.08
2022-12-03T14:01:34.571Z,39.00
2022-12-03T14:04:36.142Z,36.08
2022-12-03T14:07:38.760Z,35.93
2022-12-03T14:10:40.357Z,36.72
2022-12-03T14:13:41.799Z,35.73
2022-12-03T14:16:43.305Z,35.97
2022-12-03T14:19:45.030Z,38.93
2022-12-03T14:22:46.475Z,42.53
2022-12-03T14:25:48.002Z,41.47
2022-12-03T14:28:49.418Z,37.97
2022-12-03T14:31:50.888Z,39.88
2022-12-03T14:34:52.395Z,36.92
2022-12-03T14:37:53.810Z,37.50
2022-12-03T14:40:55.220Z,36.95
2022-12-03T14:43:56.621Z,42.88
2022-12-03T14:46:58.078Z,46.38
2022-12-03T14:49:59.511Z,40.60
2022-12-03T14:53:00.926Z,44.13
2022-12-03T14:56:02.322Z,39.22
2022-12-03T14:59:03.774Z,45.03
2022-12-03T15:02:05.699Z,44.30
2022-12-03T15:05:07.500Z,46.08
2022-12-03T15:08:09.662Z,46.33
2022-12-03T15:11:11.771Z,41.72
2022-12-03T15:14:16.615Z,40.75
2022-12-03T15:17:25.378Z,42.40
2022-12-03T15:20:31.367Z,40.05
2022-12-03T15:23:32.904Z,42.90
2022-12-03T15:26:34.351Z,42.73
2022-12-03T15:29:35.892Z,47.90
2022-12-03T15:32:37.317Z,47.03
2022-12-03T15:35:41.186Z,49.67
2022-12-03T15:41:44.081Z,45.72
2022-12-03T15:44:45.501Z,45.57
2022-12-03T15:47:46.942Z,42.83
2022-12-03T15:50:48.361Z,44.95
2022-12-03T15:53:49.923Z,54.85
2022-12-03T15:56:56.865Z,50.90
2022-12-03T15:59:58.995Z,48.60
2022-12-03T16:03:00.437Z,47.95
2022-12-03T16:06:19.533Z,49.72
2022-12-03T16:09:26.667Z,46.95
2022-12-03T16:12:29.059Z,45.75
2022-12-03T16:15:30.536Z,46.13
2022-12-03T16:18:32.154Z,46.15
2022-12-03T16:21:34.884Z,44.33
2022-12-03T16:24:36.329Z,43.95
2022-12-03T16:27:38.194Z,49.20
2022-12-03T16:30:39.803Z,70.72
2022-12-03T16:33:41.306Z,56.93
2022-12-03T16:36:42.777Z,51.80
2022-12-03T16:39:44.292Z,50.65
2022-12-03T16:42:45.803Z,52.87
2022-12-03T16:45:56.423Z,51.58
2022-12-03T16:48:58.654Z,57.22
2022-12-03T16:52:00.078Z,60.63
2022-12-03T16:55:01.794Z,55.65
2022-12-03T16:58:03.293Z,53.78
2022-12-03T17:01:05.144Z,52.07
2022-12-03T17:04:06.590Z,51.58
2022-12-03T17:07:08.022Z,44.42
2022-12-03T17:10:10.092Z,43.80
2022-12-03T17:13:11.750Z,50.28
2022-12-03T17:16:13.249Z,46.73
2022-12-03T17:19:15.109Z,51.50
2022-12-03T17:22:16.583Z,51.08
2022-12-03T17:25:18.087Z,68.43
2022-12-03T17:28:19.529Z,82.37
2022-12-03T17:31:21.058Z,83.00
2022-12-03T17:34:22.509Z,77.93
2022-12-03T17:37:23.937Z,75.88
2022-12-03T17:40:25.390Z,93.32
2022-12-03T17:43:26.835Z,98.38
2022-12-03T17:46:28.641Z,83.13
2022-12-03T17:49:31.873Z,72.35
2022-12-03T17:52:33.455Z,61.63
2022-12-03T17:55:41.277Z,63.67
2022-12-03T17:58:46.894Z,66.82
2022-12-03T18:01:50.591Z,65.60
2022-12-03T18:04:52.049Z,66.33
2022-12-03T18:07:53.612Z,65.50
2022-12-03T18:10:55.307Z,65.07
2022-12-03T18:13:56.787Z,77.15
2022-12-03T18:16:58.198Z,74.70
2022-12-03T18:20:00.416Z,69.75
2022-12-03T18:23:02.190Z,71.47
2022-12-03T18:26:04.436Z,81.32
2022-12-03T18:29:06.197Z,82.05
2022-12-03T18:32:27.182Z,80.05
2022-12-03T18:35:30.176Z,72.60
2022-12-03T18:38:33.689Z,67.53
2022-12-03T18:41:35.713Z,59.28
2022-12-03T18:44:37.250Z,67.68
2022-12-03T18:47:38.993Z,66.03
2022-12-03T18:50:41.043Z,52.42
2022-12-03T18:53:43.277Z,55.70
2022-12-03T18:56:44.697Z,58.65
2022-12-03T18:59:46.422Z,58.35
2022-12-03T19:03:02.980Z,55.67
2022-12-03T19:06:05.406Z,53.20
2022-12-03T19:09:07.202Z,48.63
2022-12-03T19:12:14.622Z,55.75
2022-12-03T19:15:16.998Z,51.35
2022-12-03T19:18:18.441Z,53.85
2022-12-03T19:21:19.925Z,49.13
2022-12-03T19:24:25.499Z,45.50
2022-12-03T19:27:29.746Z,55.00
2022-12-03T19:30:31.260Z,51.78
2022-12-03T19:33:33.987Z,48.83
2022-12-03T19:36:35.416Z,51.05
2022-12-03T19:39:36.937Z,62.13
2022-12-03T19:42:39.064Z,53.13
2022-12-03T19:45:41.250Z,55.92
2022-12-03T19:48:43.066Z,51.88
2022-12-03T19:51:44.494Z,50.05
2022-12-03T19:54:45.947Z,45.15
2022-12-03T19:57:47.645Z,51.60
2022-12-03T20:00:49.120Z,47.40
2022-12-03T20:03:53.169Z,51.20
2022-12-03T20:06:54.782Z,45.00
2022-12-03T20:09:56.599Z,54.53
2022-12-03T20:12:58.295Z,41.83
2022-12-03T20:16:07.234Z,40.95
2022-12-03T20:19:12.426Z,44.67
2022-12-03T20:22:13.845Z,46.83
2022-12-03T20:25:15.396Z,46.40
2022-12-03T20:28:16.934Z,44.87
2022-12-03T20:31:20.728Z,48.20
2022-12-03T20:34:22.233Z,49.53
2022-12-03T20:37:23.668Z,51.53
2022-12-03T20:40:25.244Z,47.15
2022-12-03T20:43:26.656Z,44.03
2022-12-03T20:46:30.248Z,51.13
2022-12-03T20:49:31.791Z,44.38
2022-12-03T20:52:33.242Z,43.60
2022-12-03T20:55:34.728Z,48.33
2022-12-03T20:58:36.543Z,49.63
2022-12-03T21:01:38.888Z,49.05
2022-12-03T21:07:41.865Z,49.65
2022-12-03T21:10:46.458Z,51.95
2022-12-03T21:13:48.017Z,55.35
2022-12-03T21:17:08.032Z,58.70
2022-12-03T21:20:10.808Z,54.30
2022-12-03T21:23:12.800Z,54.60
2022-12-03T21:26:17.520Z,57.05
2022-12-03T21:29:19.056Z,56.42
2022-12-03T21:32:20.464Z,56.80
2022-12-03T21:35:21.933Z,57.80
2022-12-03T21:38:23.850Z,55.17
2022-12-03T21:41:25.703Z,56.28
2022-12-03T21:44:27.432Z,53.97
2022-12-03T21:47:33.445Z,51.50
2022-12-03T21:50:38.279Z,50.03
2022-12-03T21:53:43.498Z,49.33
2022-12-03T21:56:45.168Z,50.67
2022-12-03T21:59:46.636Z,54.17
2022-12-03T22:02:48.107Z,64.80
2022-12-03T22:05:50.078Z,63.73
2022-12-03T22:08:51.510Z,61.25
2022-12-03T22:11:55.322Z,68.03
2022-12-03T22:14:57.296Z,61.65
2022-12-03T22:17:58.809Z,61.55
2022-12-03T22:21:08.598Z,52.60
2022-12-03T22:24:10.409Z,60.10
2022-12-03T22:27:12.922Z,62.15
2022-12-03T22:30:14.538Z,60.75
2022-12-03T22:33:16.080Z,65.47
2022-12-03T22:36:21.401Z,56.57
2022-12-03T22:39:23.407Z,59.08
2022-12-03T22:42:24.835Z,67.63
2022-12-03T22:45:26.290Z,59.13
2022-12-03T22:48:28.223Z,65.05
2022-12-03T22:51:30.239Z,60.67
2022-12-03T22:54:31.750Z,66.03
2022-12-03T22:57:33.240Z,60.75
2022-12-03T23:00:38.734Z,57.00
2022-12-03T23:03:40.249Z,59.28
2022-12-03T23:06:43.419Z,58.90
2022-12-03T23:09:44.851Z,58.35
2022-12-03T23:12:46.328Z,81.97
2022-12-03T23:15:50.805Z,61.92
2022-12-03T23:18:52.350Z,64.10
2022-12-03T23:21:53.824Z,60.23
2022-12-03T23:24:55.291Z,62.50
2022-12-03T23:27:56.756Z,59.83
2022-12-03T23:30:58.646Z,51.20
2022-12-03T23:34:00.482Z,65.82
2022-12-03T23:37:01.971Z,51.22
2022-12-03T23:40:03.926Z,63.53
2022-12-03T23:43:05.352Z,60.00
2022-12-03T23:46:12.674Z,61.43
2022-12-03T23:49:14.164Z,59.72
2022-12-03T23:52:15.586Z,65.73
2022-12-03T23:55:17.280Z,60.53
2022-12-03T23:58:18.733Z,64.72
